sensor_id;sensor_type;location;lat;lon;timestamp;pressure;altitude;pressure_sealevel;temperature;humidity
11692;BME280;33659;42.672;23.354;2023-06-26T00:01:06;69222.44;;;20.87;84.82
11692;BME280;33659;42.672;23.354;2023-06-26T00:03:33;69208.88;;;20.77;85.32
11692;BME280;33659;42.672;23.354;2023-06-26T00:06:00;69134.94;;;20.72;85.32
11692;BME280;33659;42.672;23.354;2023-06-26T00:08:27;69126.78;;;20.64;85.61
11692;BME280;33659;42.672;23.354;2023-06-26T00:10:54;69199.53;;;20.66;86.12
11692;BME280;33659;42.672;23.354;2023-06-26T00:13:22;69210.91;;;20.74;85.94
11692;BME280;33659;42.672;23.354;2023-06-26T00:15:49;69200.59;;;20.67;85.85
11692;BME280;33659;42.672;23.354;2023-06-26T00:18:16;69201.72;;;20.68;86.36
11692;BME280;33659;42.672;23.354;2023-06-26T00:20:43;69201.16;;;20.67;85.92
11692;BME280;33659;42.672;23.354;2023-06-26T00:23:11;69211.44;;;20.74;86.05
11692;BME280;33659;42.672;23.354;2023-06-26T00:25:38;69200.06;;;20.66;86.09
11692;BME280;33659;42.672;23.354;2023-06-26T00:28:05;69127.41;;;20.67;86.27
11692;BME280;33659;42.672;23.354;2023-06-26T00:30:33;69194.19;;;20.63;86.69
11692;BME280;33659;42.672;23.354;2023-06-26T00:33:00;69122.94;;;20.61;86.39
11692;BME280;33659;42.672;23.354;2023-06-26T00:35:27;69184.72;;;20.49;87.19
11692;BME280;33659;42.672;23.354;2023-06-26T00:37:54;69180.53;;;20.50;87.18
11692;BME280;33659;42.672;23.354;2023-06-26T00:40:20;69106.09;;;20.45;87.49
11692;BME280;33659;42.672;23.354;2023-06-26T00:42:47;69174.44;;;20.42;87.89
11692;BME280;33659;42.672;23.354;2023-06-26T00:45:14;69171.72;;;20.40;87.75
11692;BME280;33659;42.672;23.354;2023-06-26T00:47:42;69175.09;;;20.45;87.67
11692;BME280;33659;42.672;23.354;2023-06-26T00:50:09;69167.44;;;20.38;87.90
11692;BME280;33659;42.672;23.354;2023-06-26T00:52:36;69094.06;;;20.34;88.16
11692;BME280;33659;42.672;23.354;2023-06-26T00:55:04;69166.81;;;20.35;88.61
11692;BME280;33659;42.672;23.354;2023-06-26T00:57:31;69098.53;;;20.40;87.78
11692;BME280;33659;42.672;23.354;2023-06-26T00:59:58;69159.16;;;20.28;88.42
11692;BME280;33659;42.672;23.354;2023-06-26T01:02:25;69166.25;;;20.35;88.26
11692;BME280;33659;42.672;23.354;2023-06-26T01:05:01;69097.34;;;20.37;88.25
11692;BME280;33659;42.672;23.354;2023-06-26T01:07:28;69163.06;;;20.34;88.32
11692;BME280;33659;42.672;23.354;2023-06-26T01:10:02;69165.16;;;20.34;87.78
11692;BME280;33659;42.672;23.354;2023-06-26T01:12:29;69151.47;;;20.18;88.10
11692;BME280;33659;42.672;23.354;2023-06-26T01:14:56;69151.53;;;20.21;88.35
11692;BME280;33659;42.672;23.354;2023-06-26T01:17:23;69147.19;;;20.17;88.79
11692;BME280;33659;42.672;23.354;2023-06-26T01:19:52;69147.19;;;20.17;88.95
11692;BME280;33659;42.672;23.354;2023-06-26T01:22:26;69140.66;;;20.11;89.11
11692;BME280;33659;42.672;23.354;2023-06-26T01:25:03;69140.66;;;20.11;89.13
11692;BME280;33659;42.672;23.354;2023-06-26T01:27:37;69142.28;;;20.12;89.10
11692;BME280;33659;42.672;23.354;2023-06-26T01:30:06;69138.47;;;20.09;89.42
11692;BME280;33659;42.672;23.354;2023-06-26T01:32:34;69131.38;;;20.02;89.51
11692;BME280;33659;42.672;23.354;2023-06-26T01:35:01;69047.38;;;19.92;89.61
11692;BME280;33659;42.672;23.354;2023-06-26T01:37:28;69118.88;;;19.90;90.15
11692;BME280;33659;42.672;23.354;2023-06-26T01:39:55;69041.28;;;19.84;90.36
11692;BME280;33659;42.672;23.354;2023-06-26T01:42:22;69118.88;;;19.90;90.01
11692;BME280;33659;42.672;23.354;2023-06-26T01:44:50;69115.13;;;19.89;89.74
11692;BME280;33659;42.672;23.354;2023-06-26T01:47:22;69119.94;;;19.91;89.36
11692;BME280;33659;42.672;23.354;2023-06-26T01:49:54;69118.88;;;19.90;89.69
11692;BME280;33659;42.672;23.354;2023-06-26T01:52:26;69042.47;;;19.88;89.63
11692;BME280;33659;42.672;23.354;2023-06-26T01:54:58;69111.31;;;19.86;89.91
11692;BME280;33659;42.672;23.354;2023-06-26T01:57:30;69111.88;;;19.86;89.26
11692;BME280;33659;42.672;23.354;2023-06-26T01:59:59;69118.88;;;19.90;88.91
11692;BME280;33659;42.672;23.354;2023-06-26T02:02:28;69122.22;;;19.96;88.71
11692;BME280;33659;42.672;23.354;2023-06-26T02:04:55;69116.22;;;19.90;88.81
11692;BME280;33659;42.672;23.354;2023-06-26T02:07:22;69123.84;;;19.97;88.47
11692;BME280;33659;42.672;23.354;2023-06-26T02:09:48;69129.22;;;20.00;88.09
11692;BME280;33659;42.672;23.354;2023-06-26T02:12:15;69136.75;;;20.05;87.49
11692;BME280;33659;42.672;23.354;2023-06-26T02:14:42;69128.13;;;19.99;87.96
11692;BME280;33659;42.672;23.354;2023-06-26T02:17:10;69126.56;;;20.00;87.60
11692;BME280;33659;42.672;23.354;2023-06-26T02:19:37;69127.56;;;19.98;87.47
11692;BME280;33659;42.672;23.354;2023-06-26T02:22:13;69125.94;;;19.97;87.57
11692;BME280;33659;42.672;23.354;2023-06-26T02:24:39;69138.47;;;20.09;87.23
11692;BME280;33659;42.672;23.354;2023-06-26T02:27:06;69148.81;;;20.18;86.44
11692;BME280;33659;42.672;23.354;2023-06-26T02:29:33;69152.09;;;20.21;86.12
11692;BME280;33659;42.672;23.354;2023-06-26T02:32:00;69146.75;;;20.19;85.81
11692;BME280;33659;42.672;23.354;2023-06-26T02:34:28;69075.03;;;20.16;86.18
11692;BME280;33659;42.672;23.354;2023-06-26T02:36:55;69122.13;;;19.93;86.53
11692;BME280;33659;42.672;23.354;2023-06-26T02:39:23;69139.56;;;20.10;86.62
11692;BME280;33659;42.672;23.354;2023-06-26T02:41:50;69142.81;;;20.13;86.52
11692;BME280;33659;42.672;23.354;2023-06-26T02:44:17;69139.66;;;20.12;86.61
11692;BME280;33659;42.672;23.354;2023-06-26T02:46:44;69146.09;;;20.16;86.74
11692;BME280;33659;42.672;23.354;2023-06-26T02:49:10;69138.03;;;20.11;86.84
11692;BME280;33659;42.672;23.354;2023-06-26T02:51:38;69139.56;;;20.10;86.79
11692;BME280;33659;42.672;23.354;2023-06-26T02:54:05;69056.53;;;19.98;87.49
11692;BME280;33659;42.672;23.354;2023-06-26T02:56:32;69119.94;;;19.91;87.62
11692;BME280;33659;42.672;23.354;2023-06-26T02:58:58;69121.03;;;19.92;87.71
11692;BME280;33659;42.672;23.354;2023-06-26T03:01:25;69114.50;;;19.86;87.99
11692;BME280;33659;42.672;23.354;2023-06-26T03:03:52;69116.66;;;19.88;87.71
11692;BME280;33659;42.672;23.354;2023-06-26T03:06:19;69036.47;;;19.82;87.87
11692;BME280;33659;42.672;23.354;2023-06-26T03:08:47;69106.78;;;19.77;88.31
11692;BME280;33659;42.672;23.354;2023-06-26T03:11:14;69104.69;;;19.77;88.43
11692;BME280;33659;42.672;23.354;2023-06-26T03:13:41;69106.97;;;19.82;88.00
11692;BME280;33659;42.672;23.354;2023-06-26T03:16:08;69108.03;;;19.83;88.02
11692;BME280;33659;42.672;23.354;2023-06-26T03:18:36;69115.03;;;19.87;87.38
11692;BME280;33659;42.672;23.354;2023-06-26T03:21:03;69120.50;;;19.92;86.75
11692;BME280;33659;42.672;23.354;2023-06-26T03:23:29;69123.84;;;19.97;86.75
11692;BME280;33659;42.672;23.354;2023-06-26T03:25:57;69130.84;;;20.01;86.29
11692;BME280;33659;42.672;23.354;2023-06-26T03:28:24;69133.66;;;20.07;86.00
11692;BME280;33659;42.672;23.354;2023-06-26T03:30:51;69068.50;;;20.10;85.48
11692;BME280;33659;42.672;23.354;2023-06-26T03:33:18;69066.84;;;20.08;85.31
11692;BME280;33659;42.672;23.354;2023-06-26T03:35:45;69064.34;;;20.11;85.26
11692;BME280;33659;42.672;23.354;2023-06-26T03:38:12;69136.75;;;20.05;85.13
11692;BME280;33659;42.672;23.354;2023-06-26T03:40:38;69128.13;;;19.99;85.83
11692;BME280;33659;42.672;23.354;2023-06-26T03:43:06;69116.66;;;19.88;86.01
11692;BME280;33659;42.672;23.354;2023-06-26T03:45:33;69059.25;;;20.01;85.53
11692;BME280;33659;42.672;23.354;2023-06-26T03:48:00;69134.00;;;20.02;85.85
11692;BME280;33659;42.672;23.354;2023-06-26T03:50:27;69055.53;;;20.00;85.96
11692;BME280;33659;42.672;23.354;2023-06-26T03:52:53;69130.84;;;20.01;86.06
11692;BME280;33659;42.672;23.354;2023-06-26T03:55:21;69129.75;;;20.00;85.94
11692;BME280;33659;42.672;23.354;2023-06-26T03:57:49;69123.84;;;19.97;85.80
11692;BME280;33659;42.672;23.354;2023-06-26T04:00:18;69119.41;;;19.91;86.29
11692;BME280;33659;42.672;23.354;2023-06-26T04:02:44;69115.50;;;19.85;86.26
11692;BME280;33659;42.672;23.354;2023-06-26T04:05:11;69124.28;;;19.95;86.03
11692;BME280;33659;42.672;23.354;2023-06-26T04:07:48;69060.88;;;20.02;85.75
11692;BME280;33659;42.672;23.354;2023-06-26T04:10:19;69129.84;;;20.03;85.64
11692;BME280;33659;42.672;23.354;2023-06-26T04:12:46;69130.94;;;20.04;85.34
11692;BME280;33659;42.672;23.354;2023-06-26T04:15:13;69138.47;;;20.09;84.44
11692;BME280;33659;42.672;23.354;2023-06-26T04:17:41;69163.00;;;20.32;83.51
11692;BME280;33659;42.672;23.354;2023-06-26T04:20:09;69157.66;;;20.29;83.36
11692;BME280;33659;42.672;23.354;2023-06-26T04:22:35;69154.81;;;20.24;83.71
11692;BME280;33659;42.672;23.354;2023-06-26T04:25:03;69079.94;;;20.20;83.51
11692;BME280;33659;42.672;23.354;2023-06-26T04:27:30;69143.47;;;20.16;84.03
11692;BME280;33659;42.672;23.354;2023-06-26T04:29:56;69147.19;;;20.17;84.07
11692;BME280;33659;42.672;23.354;2023-06-26T04:32:23;69147.19;;;20.17;84.24
11692;BME280;33659;42.672;23.354;2023-06-26T04:34:51;69161.44;;;20.33;83.72
11692;BME280;33659;42.672;23.354;2023-06-26T04:37:18;69177.72;;;20.45;83.56
11692;BME280;33659;42.672;23.354;2023-06-26T04:39:45;69182.63;;;20.50;82.99
11692;BME280;33659;42.672;23.354;2023-06-26T04:42:11;69117.59;;;20.58;82.16
11692;BME280;33659;42.672;23.354;2023-06-26T04:44:39;69118.59;;;20.57;81.82
11692;BME280;33659;42.672;23.354;2023-06-26T04:47:06;69183.81;;;20.53;82.11
11692;BME280;33659;42.672;23.354;2023-06-26T04:49:33;69121.41;;;20.62;82.14
11692;BME280;33659;42.672;23.354;2023-06-26T04:52:01;69194.06;;;20.61;81.98
11692;BME280;33659;42.672;23.354;2023-06-26T04:54:28;69184.25;;;20.51;82.15
11692;BME280;33659;42.672;23.354;2023-06-26T04:56:55;69183.19;;;20.50;82.84
11692;BME280;33659;42.672;23.354;2023-06-26T04:59:22;69171.28;;;20.42;82.72
11692;BME280;33659;42.672;23.354;2023-06-26T05:01:49;69104.44;;;20.43;83.45
11692;BME280;33659;42.672;23.354;2023-06-26T05:04:16;69168.44;;;20.37;83.88
11692;BME280;33659;42.672;23.354;2023-06-26T05:06:43;69178.91;;;20.49;83.17
11692;BME280;33659;42.672;23.354;2023-06-26T05:09:11;69198.97;;;20.65;83.12
11692;BME280;33659;42.672;23.354;2023-06-26T05:11:39;69130.03;;;20.67;82.12
11692;BME280;33659;42.672;23.354;2023-06-26T05:14:05;69204.97;;;20.71;82.00
11692;BME280;33659;42.672;23.354;2023-06-26T05:16:34;69133.31;;;20.70;82.06
11692;BME280;33659;42.672;23.354;2023-06-26T05:19:01;69206.53;;;20.70;82.17
11692;BME280;33659;42.672;23.354;2023-06-26T05:21:28;69131.75;;;20.71;82.48
11692;BME280;33659;42.672;23.354;2023-06-26T05:23:56;69203.34;;;20.69;82.81
11692;BME280;33659;42.672;23.354;2023-06-26T05:26:26;69197.97;;;20.67;82.44
11692;BME280;33659;42.672;23.354;2023-06-26T05:28:53;69215.25;;;20.78;82.70
11692;BME280;33659;42.672;23.354;2023-06-26T05:31:20;69219.69;;;20.85;82.29
11692;BME280;33659;42.672;23.354;2023-06-26T05:33:47;69234.88;;;20.96;80.95
11692;BME280;33659;42.672;23.354;2023-06-26T05:36:16;69235.50;;;20.99;81.31
11692;BME280;33659;42.672;23.354;2023-06-26T05:38:43;69235.50;;;20.99;80.65
11692;BME280;33659;42.672;23.354;2023-06-26T05:41:10;69235.97;;;20.97;79.98
11692;BME280;33659;42.672;23.354;2023-06-26T05:43:38;69235.50;;;20.99;80.76
11692;BME280;33659;42.672;23.354;2023-06-26T05:46:05;69232.88;;;20.99;79.60
11692;BME280;33659;42.672;23.354;2023-06-26T05:48:32;69229.59;;;20.96;79.46
11692;BME280;33659;42.672;23.354;2023-06-26T05:50:59;69243.06;;;21.04;79.65
11692;BME280;33659;42.672;23.354;2023-06-26T05:53:26;69243.69;;;21.07;79.10
11692;BME280;33659;42.672;23.354;2023-06-26T05:55:55;69168.81;;;21.06;79.30
11692;BME280;33659;42.672;23.354;2023-06-26T05:58:24;69169.78;;;21.04;79.02
11692;BME280;33659;42.672;23.354;2023-06-26T06:00:53;69150.75;;;20.87;78.85
11692;BME280;33659;42.672;23.354;2023-06-26T06:03:20;69238.78;;;21.02;78.96
11692;BME280;33659;42.672;23.354;2023-06-26T06:05:47;69250.31;;;21.16;79.02
11692;BME280;33659;42.672;23.354;2023-06-26T06:08:14;69260.03;;;21.22;79.34
11692;BME280;33659;42.672;23.354;2023-06-26T06:10:41;69260.03;;;21.22;78.67
11692;BME280;33659;42.672;23.354;2023-06-26T06:13:07;69264.97;;;21.27;78.11
11692;BME280;33659;42.672;23.354;2023-06-26T06:15:34;69261.22;;;21.26;77.79
11692;BME280;33659;42.672;23.354;2023-06-26T06:18:02;69194.41;;;21.30;77.59
11692;BME280;33659;42.672;23.354;2023-06-26T06:20:30;69193.75;;;21.27;77.76
11692;BME280;33659;42.672;23.354;2023-06-26T06:22:57;69291.16;;;21.51;77.19
11692;BME280;33659;42.672;23.354;2023-06-26T06:25:23;69298.78;;;21.58;76.98
11692;BME280;33659;42.672;23.354;2023-06-26T06:27:50;69307.97;;;21.65;76.22
11692;BME280;33659;42.672;23.354;2023-06-26T06:30:17;69249.34;;;21.79;75.76
11692;BME280;33659;42.672;23.354;2023-06-26T06:32:44;69333.16;;;21.90;75.57
11692;BME280;33659;42.672;23.354;2023-06-26T06:35:12;69334.25;;;21.92;75.64
11692;BME280;33659;42.672;23.354;2023-06-26T06:37:39;69272.78;;;22.01;74.64
11692;BME280;33659;42.672;23.354;2023-06-26T06:40:06;69275.03;;;22.05;73.84
11692;BME280;33659;42.672;23.354;2023-06-26T06:42:33;69260.88;;;21.92;73.99
11692;BME280;33659;42.672;23.354;2023-06-26T06:45:01;69327.59;;;21.83;74.63
11692;BME280;33659;42.672;23.354;2023-06-26T06:47:28;69250.34;;;21.77;74.50
11692;BME280;33659;42.672;23.354;2023-06-26T06:49:55;69339.06;;;21.94;74.13
11692;BME280;33659;42.672;23.354;2023-06-26T06:52:23;69267.97;;;21.99;73.59
11692;BME280;33659;42.672;23.354;2023-06-26T06:54:53;69335.88;;;21.93;73.86
11692;BME280;33659;42.672;23.354;2023-06-26T06:57:20;69275.50;;;22.03;73.60
11692;BME280;33659;42.672;23.354;2023-06-26T06:59:47;69293.50;;;22.20;73.01
11692;BME280;33659;42.672;23.354;2023-06-26T07:02:15;69380.66;;;22.35;72.11
11692;BME280;33659;42.672;23.354;2023-06-26T07:04:42;69393.19;;;22.47;71.88
11692;BME280;33659;42.672;23.354;2023-06-26T07:07:09;69409.03;;;22.61;71.58
11692;BME280;33659;42.672;23.354;2023-06-26T07:09:37;69421.56;;;22.73;71.14
11692;BME280;33659;42.672;23.354;2023-06-26T07:12:05;69422.13;;;22.74;70.09
11692;BME280;33659;42.672;23.354;2023-06-26T07:14:32;69352.38;;;22.75;69.61
11692;BME280;33659;42.672;23.354;2023-06-26T07:16:58;69352.94;;;22.76;69.99
11692;BME280;33659;42.672;23.354;2023-06-26T07:19:25;69342.66;;;22.68;69.62
11692;BME280;33659;42.672;23.354;2023-06-26T07:21:52;69335.47;;;22.59;69.81
11692;BME280;33659;42.672;23.354;2023-06-26T07:24:18;69401.38;;;22.54;69.38
11692;BME280;33659;42.672;23.354;2023-06-26T07:26:47;69331.56;;;22.53;69.48
11692;BME280;33659;42.672;23.354;2023-06-26T07:29:13;69400.81;;;22.54;68.43
11692;BME280;33659;42.672;23.354;2023-06-26T07:31:40;69328.50;;;22.55;68.57
11692;BME280;33659;42.672;23.354;2023-06-26T07:34:07;69341.94;;;22.63;68.07
11692;BME280;33659;42.672;23.354;2023-06-26T07:36:33;69350.84;;;22.76;67.88
11692;BME280;33659;42.672;23.354;2023-06-26T07:39:00;69437.31;;;22.85;68.55
11692;BME280;33659;42.672;23.354;2023-06-26T07:41:27;69445.06;;;22.95;68.18
11692;BME280;33659;42.672;23.354;2023-06-26T07:43:57;69384.56;;;23.05;66.47
11692;BME280;33659;42.672;23.354;2023-06-26T07:46:24;69460.91;;;23.10;66.22
11692;BME280;33659;42.672;23.354;2023-06-26T07:48:51;69454.25;;;23.01;65.84
11692;BME280;33659;42.672;23.354;2023-06-26T07:51:18;69381.31;;;23.02;65.11
11692;BME280;33659;42.672;23.354;2023-06-26T07:53:45;69450.00;;;23.00;65.84
11692;BME280;33659;42.672;23.354;2023-06-26T07:56:11;69448.34;;;22.98;64.98
11692;BME280;33659;42.672;23.354;2023-06-26T07:58:38;69461.00;;;23.12;64.04
11692;BME280;33659;42.672;23.354;2023-06-26T08:01:06;69449.41;;;22.99;62.33
11692;BME280;33659;42.672;23.354;2023-06-26T08:03:33;69404.31;;;23.26;62.79
11692;BME280;33659;42.672;23.354;2023-06-26T08:06:00;69412.94;;;23.32;63.13
11692;BME280;33659;42.672;23.354;2023-06-26T08:08:26;69494.19;;;23.41;64.14
11692;BME280;33659;42.672;23.354;2023-06-26T08:10:53;69423.31;;;23.41;64.80
11692;BME280;33659;42.672;23.354;2023-06-26T08:13:20;69433.13;;;23.50;64.66
11692;BME280;33659;42.672;23.354;2023-06-26T08:15:47;69444.59;;;23.61;63.89
11692;BME280;33659;42.672;23.354;2023-06-26T08:18:15;69533.56;;;23.77;62.58
11692;BME280;33659;42.672;23.354;2023-06-26T08:20:42;69529.16;;;23.73;62.68
11692;BME280;33659;42.672;23.354;2023-06-26T08:23:09;69445.47;;;23.72;61.39
11692;BME280;33659;42.672;23.354;2023-06-26T08:25:35;69518.88;;;23.66;62.29
11692;BME280;33659;42.672;23.354;2023-06-26T08:28:02;69437.41;;;23.52;60.11
11692;BME280;33659;42.672;23.354;2023-06-26T08:30:29;69422.13;;;23.38;62.29
11692;BME280;33659;42.672;23.354;2023-06-26T08:32:56;69489.81;;;23.37;62.39
11692;BME280;33659;42.672;23.354;2023-06-26T08:35:24;69494.75;;;23.41;62.46
11692;BME280;33659;42.672;23.354;2023-06-26T08:37:51;69500.75;;;23.47;61.92
11692;BME280;33659;42.672;23.354;2023-06-26T08:40:20;69505.69;;;23.51;62.76
11692;BME280;33659;42.672;23.354;2023-06-26T08:42:48;69418.38;;;23.37;62.98
11692;BME280;33659;42.672;23.354;2023-06-26T08:45:18;69484.94;;;23.32;63.46
11692;BME280;33659;42.672;23.354;2023-06-26T08:47:45;69489.22;;;23.34;63.19
11692;BME280;33659;42.672;23.354;2023-06-26T08:50:14;69486.47;;;23.31;61.06
11692;BME280;33659;42.672;23.354;2023-06-26T08:52:52;69420.50;;;23.36;61.46
11692;BME280;33659;42.672;23.354;2023-06-26T08:55:20;69493.00;;;23.37;60.61
11692;BME280;33659;42.672;23.354;2023-06-26T08:57:50;69415.00;;;23.46;60.96
11692;BME280;33659;42.672;23.354;2023-06-26T09:00:17;69431.94;;;23.47;61.13
11692;BME280;33659;42.672;23.354;2023-06-26T09:02:44;69437.94;;;23.52;61.30
11692;BME280;33659;42.672;23.354;2023-06-26T09:05:12;69429.16;;;23.59;60.66
11692;BME280;33659;42.672;23.354;2023-06-26T09:07:38;69452.31;;;23.71;61.43
11692;BME280;33659;42.672;23.354;2023-06-26T09:10:08;69536.19;;;23.77;60.16
11692;BME280;33659;42.672;23.354;2023-06-26T09:12:35;69465.88;;;23.81;59.47
11692;BME280;33659;42.672;23.354;2023-06-26T09:15:03;69481.63;;;23.93;59.75
11692;BME280;33659;42.672;23.354;2023-06-26T09:17:33;69483.34;;;23.97;59.08
11692;BME280;33659;42.672;23.354;2023-06-26T09:20:05;69487.16;;;24.01;58.77
11692;BME280;33659;42.672;23.354;2023-06-26T09:22:35;69489.88;;;24.03;57.36
11692;BME280;33659;42.672;23.354;2023-06-26T09:25:05;69582.06;;;24.20;59.44
11692;BME280;33659;42.672;23.354;2023-06-26T09:27:33;69505.63;;;24.16;58.93
11692;BME280;33659;42.672;23.354;2023-06-26T09:30:02;69500.72;;;24.11;58.00
11692;BME280;33659;42.672;23.354;2023-06-26T09:32:29;69482.78;;;23.97;58.81
11692;BME280;33659;42.672;23.354;2023-06-26T09:34:55;69492.63;;;24.06;58.00
11692;BME280;33659;42.672;23.354;2023-06-26T09:37:23;69492.53;;;24.03;59.24
11692;BME280;33659;42.672;23.354;2023-06-26T09:39:50;69497.53;;;24.11;58.89
11692;BME280;33659;42.672;23.354;2023-06-26T09:42:17;69492.63;;;24.06;58.86
11692;BME280;33659;42.672;23.354;2023-06-26T09:44:47;69551.56;;;23.94;58.69
11692;BME280;33659;42.672;23.354;2023-06-26T09:47:16;69472.88;;;23.85;58.89
11692;BME280;33659;42.672;23.354;2023-06-26T09:49:43;69475.06;;;23.87;58.01
11692;BME280;33659;42.672;23.354;2023-06-26T09:52:14;69462.13;;;23.80;58.05
11692;BME280;33659;42.672;23.354;2023-06-26T09:54:41;69459.41;;;23.77;57.46
11692;BME280;33659;42.672;23.354;2023-06-26T09:57:11;69458.88;;;23.77;58.30
11692;BME280;33659;42.672;23.354;2023-06-26T09:59:39;69447.41;;;23.66;58.42
11692;BME280;33659;42.672;23.354;2023-06-26T10:02:07;69457.75;;;23.76;58.21
11692;BME280;33659;42.672;23.354;2023-06-26T10:04:35;69453.97;;;23.72;56.96
11692;BME280;33659;42.672;23.354;2023-06-26T10:07:04;69523.63;;;23.66;57.53
11692;BME280;33659;42.672;23.354;2023-06-26T10:09:32;69446.88;;;23.66;57.42
11692;BME280;33659;42.672;23.354;2023-06-26T10:12:02;69453.31;;;23.69;58.43
11692;BME280;33659;42.672;23.354;2023-06-26T10:14:34;69524.78;;;23.69;57.82
11692;BME280;33659;42.672;23.354;2023-06-26T10:17:04;69534.00;;;23.75;57.46
11692;BME280;33659;42.672;23.354;2023-06-26T10:19:35;69535.72;;;23.80;56.56
11692;BME280;33659;42.672;23.354;2023-06-26T10:22:04;69466.88;;;23.80;57.19
11692;BME280;33659;42.672;23.354;2023-06-26T10:24:33;69465.97;;;23.84;57.48
11692;BME280;33659;42.672;23.354;2023-06-26T10:27:03;69548.19;;;23.89;57.23
11692;BME280;33659;42.672;23.354;2023-06-26T10:29:31;69474.06;;;23.89;55.67
11692;BME280;33659;42.672;23.354;2023-06-26T10:32:00;69461.66;;;23.82;56.29
11692;BME280;33659;42.672;23.354;2023-06-26T10:34:29;69459.41;;;23.77;56.23
11692;BME280;33659;42.672;23.354;2023-06-26T10:37:02;69461.59;;;23.80;56.24
11692;BME280;33659;42.672;23.354;2023-06-26T10:39:46;69463.16;;;23.78;56.32
11692;BME280;33659;42.672;23.354;2023-06-26T10:42:13;69458.16;;;23.71;54.03
11692;BME280;33659;42.672;23.354;2023-06-26T10:44:41;69523.09;;;23.65;53.18
11692;BME280;33659;42.672;23.354;2023-06-26T10:47:09;69451.63;;;23.65;53.42
11692;BME280;33659;42.672;23.354;2023-06-26T10:49:37;69453.31;;;23.69;53.35
11692;BME280;33659;42.672;23.354;2023-06-26T10:52:07;69446.31;;;23.65;53.42
11692;BME280;33659;42.672;23.354;2023-06-26T10:54:34;69458.72;;;23.72;53.93
11692;BME280;33659;42.672;23.354;2023-06-26T10:57:02;69518.25;;;23.63;54.37
11692;BME280;33659;42.672;23.354;2023-06-26T10:59:30;69535.72;;;23.80;55.28
11692;BME280;33659;42.672;23.354;2023-06-26T11:01:59;69467.50;;;23.83;56.87
11692;BME280;33659;42.672;23.354;2023-06-26T11:04:44;69548.28;;;23.91;57.25
11692;BME280;33659;42.672;23.354;2023-06-26T11:07:18;69484.97;;;23.99;56.47
11692;BME280;33659;42.672;23.354;2023-06-26T11:09:54;69561.84;;;24.01;56.33
11692;BME280;33659;42.672;23.354;2023-06-26T11:12:37;69561.31;;;24.01;56.41
11692;BME280;33659;42.672;23.354;2023-06-26T11:15:08;69570.06;;;24.09;54.19
11692;BME280;33659;42.672;23.354;2023-06-26T11:17:36;69489.59;;;24.11;54.84
11692;BME280;33659;42.672;23.354;2023-06-26T11:20:05;69512.19;;;24.22;55.61
11692;BME280;33659;42.672;23.354;2023-06-26T11:22:35;69520.56;;;24.35;55.54
11692;BME280;33659;42.672;23.354;2023-06-26T11:25:03;69536.75;;;24.45;55.35
11692;BME280;33659;42.672;23.354;2023-06-26T11:27:32;69529.50;;;24.50;53.99
11692;BME280;33659;42.672;23.354;2023-06-26T11:29:58;69532.47;;;24.43;53.95
11692;BME280;33659;42.672;23.354;2023-06-26T11:32:26;69591.38;;;24.29;54.02
11692;BME280;33659;42.672;23.354;2023-06-26T11:34:54;69599.66;;;24.39;54.50
11692;BME280;33659;42.672;23.354;2023-06-26T11:37:21;69536.28;;;24.47;54.74
11692;BME280;33659;42.672;23.354;2023-06-26T11:39:49;69559.22;;;24.68;54.35
11692;BME280;33659;42.672;23.354;2023-06-26T11:42:16;69560.78;;;24.67;54.53
11692;BME280;33659;42.672;23.354;2023-06-26T11:44:43;69562.50;;;24.71;54.03
11692;BME280;33659;42.672;23.354;2023-06-26T11:47:14;69548.78;;;24.56;52.78
11692;BME280;33659;42.672;23.354;2023-06-26T11:49:42;69608.97;;;24.48;52.57
11692;BME280;33659;42.672;23.354;2023-06-26T11:52:09;69518.59;;;24.40;52.29
11692;BME280;33659;42.672;23.354;2023-06-26T11:54:36;69592.09;;;24.35;52.69
11692;BME280;33659;42.672;23.354;2023-06-26T11:57:05;69527.50;;;24.36;52.83
11692;BME280;33659;42.672;23.354;2023-06-26T11:59:34;69529.19;;;24.40;53.42
11692;BME280;33659;42.672;23.354;2023-06-26T12:02:04;69526.69;;;24.45;53.08
11692;BME280;33659;42.672;23.354;2023-06-26T12:04:32;69542.75;;;24.50;53.14
11692;BME280;33659;42.672;23.354;2023-06-26T12:06:59;69571.69;;;24.77;54.21
11692;BME280;33659;42.672;23.354;2023-06-26T12:09:29;69596.81;;;25.01;53.08
11692;BME280;33659;42.672;23.354;2023-06-26T12:11:56;69601.28;;;25.07;52.41
11692;BME280;33659;42.672;23.354;2023-06-26T12:14:26;69613.53;;;25.26;52.89
11692;BME280;33659;42.672;23.354;2023-06-26T12:16:54;69638.88;;;25.40;52.00
11692;BME280;33659;42.672;23.354;2023-06-26T12:19:25;69655.25;;;25.55;51.61
11692;BME280;33659;42.672;23.354;2023-06-26T12:21:52;69660.66;;;25.75;51.03
11692;BME280;33659;42.672;23.354;2023-06-26T12:24:22;69666.25;;;25.68;50.21
11692;BME280;33659;42.672;23.354;2023-06-26T12:26:50;69645.19;;;25.56;49.69
11692;BME280;33659;42.672;23.354;2023-06-26T12:29:19;69677.69;;;25.76;49.36
11692;BME280;33659;42.672;23.354;2023-06-26T12:31:49;69690.25;;;25.88;49.78
11692;BME280;33659;42.672;23.354;2023-06-26T12:34:18;69685.09;;;25.93;49.28
11692;BME280;33659;42.672;23.354;2023-06-26T12:36:46;69708.44;;;26.10;50.13
11692;BME280;33659;42.672;23.354;2023-06-26T12:39:16;69725.75;;;26.21;49.80
11692;BME280;33659;42.672;23.354;2023-06-26T12:41:47;69723.09;;;26.21;48.85
11692;BME280;33659;42.672;23.354;2023-06-26T12:44:20;69718.09;;;26.14;49.47
11692;BME280;33659;42.672;23.354;2023-06-26T12:46:50;69694.06;;;25.91;50.12
11692;BME280;33659;42.672;23.354;2023-06-26T12:49:17;69662.38;;;25.62;51.26
11692;BME280;33659;42.672;23.354;2023-06-26T12:51:45;69662.69;;;25.72;51.29
11692;BME280;33659;42.672;23.354;2023-06-26T12:54:12;69644.72;;;25.58;51.06